Time;durP1;ratioP1;P1;durP2;ratioP2;P2;SDS_P1;SDS_P2;PMS_P1;PMS_P2;Temp;Humidity;BMP_temperature;BMP_pressure;BME280_temperature;BME280_humidity;BME280_pressure;Samples;Min_cycle;Max_cycle;Signal;HPM_P1;HPM_P2
2022/09/01 00:01:38;;;;;;;1.37;0.80;;;;;;;13.86;62.86;101530.19;5088532;28;20224;-71
2022/09/01 00:04:07;;;;;;;1.87;0.60;;;;;;;13.82;62.24;101542.06;5080621;28;20200;-69
2022/09/01 00:06:39;;;;;;;0.77;0.70;;;;;;;13.76;62.44;101546.00;5093143;28;20319;-70
2022/09/01 00:09:09;;;;;;;3.97;1.07;;;;;;;13.71;62.89;101537.38;5088749;28;20239;-69
2022/09/01 00:11:37;;;;;;;1.63;1.00;;;;;;;13.68;63.35;101542.94;5088037;28;20193;-70
2022/09/01 00:14:05;;;;;;;1.40;1.00;;;;;;;13.66;63.49;101539.47;5092554;28;20653;-69
2022/09/01 00:16:33;;;;;;;3.20;0.93;;;;;;;13.66;63.61;101543.97;5088780;28;20236;-69
2022/09/01 00:19:00;;;;;;;1.00;0.83;;;;;;;13.65;63.74;101542.25;5089521;28;20223;-70
2022/09/01 00:21:29;;;;;;;1.47;0.80;;;;;;;13.63;63.92;101534.31;5089829;28;20224;-70
2022/09/01 00:23:57;;;;;;;1.90;0.80;;;;;;;13.60;63.68;101544.38;5091098;28;20207;-70
2022/09/01 00:26:24;;;;;;;2.20;0.60;;;;;;;13.55;63.18;101547.31;5086993;28;20264;-70
2022/09/01 00:28:50;;;;;;;1.20;0.90;;;;;;;13.49;63.36;101553.91;5085255;28;20211;-70
2022/09/01 00:31:18;;;;;;;1.30;0.90;;;;;;;13.44;63.66;101549.78;5079866;28;20196;-70
2022/09/01 00:33:46;;;;;;;1.40;1.00;;;;;;;13.39;64.25;101541.19;5088254;28;20284;-70
2022/09/01 00:36:13;;;;;;;3.53;1.30;;;;;;;13.35;64.45;101543.19;5090083;28;20227;-70
2022/09/01 00:38:40;;;;;;;2.53;1.00;;;;;;;13.35;64.47;101542.31;5082667;28;20566;-69
2022/09/01 00:41:08;;;;;;;0.83;0.80;;;;;;;13.32;64.46;101539.81;5088805;28;20784;-69
2022/09/01 00:43:38;;;;;;;1.00;0.80;;;;;;;13.30;64.49;101544.41;5087234;28;20688;-69
2022/09/01 00:46:07;;;;;;;1.77;1.00;;;;;;;13.26;64.74;101540.19;5087917;28;20700;-69
2022/09/01 00:48:34;;;;;;;2.20;1.10;;;;;;;13.22;64.64;101538.69;5084211;28;20204;-69
2022/09/01 00:51:02;;;;;;;2.27;1.20;;;;;;;13.17;65.38;101537.13;5083011;28;20588;-69
2022/09/01 00:53:29;;;;;;;2.47;1.00;;;;;;;13.15;65.28;101528.34;5090003;28;20204;-69
2022/09/01 00:55:56;;;;;;;4.07;1.40;;;;;;;13.13;65.58;101537.38;5087310;28;20235;-70
2022/09/01 00:58:24;;;;;;;1.50;0.97;;;;;;;13.09;65.24;101542.03;5088648;28;20663;-69
2022/09/01 01:00:53;;;;;;;3.73;1.07;;;;;;;13.05;66.00;101532.50;5086276;28;20232;-69
2022/09/01 01:03:20;;;;;;;2.20;1.00;;;;;;;13.04;65.91;101533.44;5088006;28;20206;-69
2022/09/01 01:05:53;;;;;;;1.83;1.03;;;;;;;13.02;65.86;101537.16;5085781;28;20212;-69
2022/09/01 01:08:28;;;;;;;1.53;1.10;;;;;;;12.97;65.79;101525.88;5089007;28;20204;-69
2022/09/01 01:10:55;;;;;;;1.13;0.90;;;;;;;12.91;66.26;101528.88;5086926;28;20206;-70
2022/09/01 01:13:24;;;;;;;3.20;0.90;;;;;;;12.86;66.39;101531.84;5089185;28;20602;-70
2022/09/01 01:15:52;;;;;;;2.47;1.20;;;;;;;12.81;66.56;101528.59;5087121;28;20319;-69
2022/09/01 01:18:19;;;;;;;1.83;1.00;;;;;;;12.77;66.70;101535.91;5086853;28;20207;-70
2022/09/01 01:23:39;;;;;;;2.33;1.10;;;;;;;12.70;67.42;101526.56;5088362;28;20211;-69
2022/09/01 01:26:09;;;;;;;0.70;0.70;;;;;;;12.68;67.55;101523.09;5084912;28;20250;-70
2022/09/01 01:28:38;;;;;;;1.97;1.10;;;;;;;12.68;67.64;101527.59;5088805;28;20292;-70
2022/09/01 01:31:10;;;;;;;1.40;0.90;;;;;;;12.65;67.41;101533.97;5087006;28;20204;-69
2022/09/01 01:33:40;;;;;;;1.60;1.00;;;;;;;12.58;67.47;101534.41;5084669;28;20211;-69
2022/09/01 01:36:11;;;;;;;1.30;1.10;;;;;;;12.49;67.93;101531.31;5084091;28;20234;-69
2022/09/01 01:38:38;;;;;;;3.13;1.00;;;;;;;12.43;68.63;101529.00;5085601;28;20264;-70
2022/09/01 01:41:06;;;;;;;1.40;1.00;;;;;;;12.40;68.81;101522.94;5085750;28;20228;-69
2022/09/01 01:43:33;;;;;;;1.77;1.20;;;;;;;12.40;69.17;101526.47;5086977;28;20208;-70
2022/09/01 01:46:01;;;;;;;2.97;1.00;;;;;;;12.39;69.56;101523.91;5083021;28;20224;-69
2022/09/01 01:48:28;;;;;;;1.07;0.90;;;;;;;12.40;69.96;101523.81;5087132;28;20199;-70
2022/09/01 01:50:58;;;;;;;3.23;1.10;;;;;;;12.41;69.82;101525.53;5087861;28;20198;-70
2022/09/01 01:53:24;;;;;;;1.80;0.90;;;;;;;12.41;69.93;101527.34;5085163;28;20678;-70
2022/09/01 01:55:51;;;;;;;1.60;1.10;;;;;;;12.42;70.15;101527.25;5086851;28;20246;-70
2022/09/01 01:58:23;;;;;;;1.57;0.97;;;;;;;12.42;69.75;101527.25;5086590;28;20207;-70
2022/09/01 02:00:51;;;;;;;2.37;1.10;;;;;;;12.40;69.84;101522.94;5088388;28;20326;-70
2022/09/01 02:03:21;;;;;;;2.57;1.20;;;;;;;12.36;69.86;101532.94;5087940;28;20211;-70
2022/09/01 02:05:50;;;;;;;1.07;0.97;;;;;;;12.32;69.61;101533.22;5087382;28;20705;-69
2022/09/01 02:08:20;;;;;;;1.97;1.10;;;;;;;12.25;69.79;101524.69;5085628;28;20219;-70
2022/09/01 02:10:51;;;;;;;1.27;1.10;;;;;;;12.21;69.91;101533.81;5086148;28;20669;-69
2022/09/01 02:13:29;;;;;;;1.07;1.07;;;;;;;12.16;69.99;101542.09;5085750;28;20204;-69
2022/09/01 02:15:59;;;;;;;1.47;1.00;;;;;;;12.12;70.25;101537.00;5084467;28;20254;-69
2022/09/01 02:18:29;;;;;;;2.07;1.23;;;;;;;12.09;70.83;101539.84;5086092;28;20614;-69
2022/09/01 02:20:57;;;;;;;1.03;1.00;;;;;;;12.06;70.97;101535.53;5083963;28;20222;-69
2022/09/01 02:23:24;;;;;;;2.33;1.10;;;;;;;12.06;71.22;101532.00;5086112;28;20618;-69
2022/09/01 02:25:53;;;;;;;1.30;1.20;;;;;;;12.04;71.72;101526.75;5091073;28;20879;-70
2022/09/01 02:28:23;;;;;;;2.07;1.20;;;;;;;12.04;71.66;101531.22;5089450;28;20203;-69
2022/09/01 02:30:53;;;;;;;1.20;1.10;;;;;;;12.03;71.94;101530.34;5090829;28;20198;-70
2022/09/01 02:33:21;;;;;;;1.63;1.10;;;;;;;12.05;71.93;101530.28;5091924;28;20204;-69
2022/09/01 02:35:50;;;;;;;2.27;1.10;;;;;;;12.03;71.93;101526.81;5092221;28;20219;-70
2022/09/01 02:38:19;;;;;;;1.37;1.10;;;;;;;12.00;71.41;101524.34;5091076;28;20212;-70
2022/09/01 02:40:46;;;;;;;1.30;1.10;;;;;;;11.92;71.38;101522.09;5088298;28;20258;-70
2022/09/01 02:43:18;;;;;;;1.47;1.20;;;;;;;11.87;71.43;101520.63;5093006;28;20206;-69
2022/09/01 02:45:46;;;;;;;1.23;1.13;;;;;;;11.82;71.72;101516.38;5090909;28;20220;-69
2022/09/01 02:48:13;;;;;;;1.50;1.40;;;;;;;11.78;72.13;101517.53;5089329;28;20205;-69
2022/09/01 02:50:41;;;;;;;1.70;1.17;;;;;;;11.76;72.31;101522.06;5088787;28;20212;-69
2022/09/01 02:53:10;;;;;;;2.00;1.17;;;;;;;11.73;72.38;101516.88;5091664;28;20211;-69
2022/09/01 02:55:38;;;;;;;1.90;1.17;;;;;;;11.69;72.39;101514.44;5089176;28;20273;-69
2022/09/01 02:58:09;;;;;;;2.47;1.13;;;;;;;11.67;72.78;101513.66;5087289;28;20697;-69
2022/09/01 03:00:38;;;;;;;1.90;1.20;;;;;;;11.65;72.68;101512.88;5088856;28;20198;-69
2022/09/01 03:03:07;;;;;;;3.07;1.37;;;;;;;11.61;72.72;101514.88;5089578;28;20204;-69
2022/09/01 03:05:38;;;;;;;2.10;1.20;;;;;;;11.59;72.92;101518.56;5088476;28;20236;-69
2022/09/01 03:08:09;;;;;;;1.83;1.20;;;;;;;11.56;73.04;101514.25;5090253;28;20223;-70
2022/09/01 03:10:40;;;;;;;1.97;1.50;;;;;;;11.56;73.19;101518.72;5088844;28;20210;-70
2022/09/01 03:13:10;;;;;;;1.53;1.27;;;;;;;11.53;73.05;101511.75;5089927;28;20218;-69
2022/09/01 03:15:37;;;;;;;1.63;1.10;;;;;;;11.48;73.13;101511.13;5089021;28;20238;-69
2022/09/01 03:18:07;;;;;;;1.47;1.20;;;;;;;11.45;72.89;101511.31;5088922;28;20205;-69
2022/09/01 03:20:35;;;;;;;3.20;1.30;;;;;;;11.44;73.44;101522.91;5088554;28;20566;-69
2022/09/01 03:23:05;;;;;;;1.13;1.03;;;;;;;11.43;73.70;101524.72;5092047;28;20227;-69
2022/09/01 03:25:32;;;;;;;1.40;1.30;;;;;;;11.43;73.68;101522.06;5089666;28;20229;-69
2022/09/01 03:28:00;;;;;;;3.13;1.53;;;;;;;11.42;73.82;101522.13;5089067;28;20286;-69
2022/09/01 03:30:28;;;;;;;1.97;1.20;;;;;;;11.41;73.98;101523.06;5091018;28;20221;-69
2022/09/01 03:32:55;;;;;;;1.33;1.10;;;;;;;11.40;74.45;101513.34;5089417;28;20199;-70
2022/09/01 03:35:24;;;;;;;2.47;1.43;;;;;;;11.38;74.08;101515.22;5088592;28;20216;-70
2022/09/01 03:37:51;;;;;;;2.27;1.17;;;;;;;11.36;74.00;101517.13;5090540;28;20204;-69
2022/09/01 03:40:18;;;;;;;1.60;1.20;;;;;;;11.33;74.00;101517.28;5091844;28;20206;-69
2022/09/01 03:42:45;;;;;;;2.10;1.37;;;;;;;11.30;73.76;101512.94;5088758;28;20228;-69
2022/09/01 03:45:14;;;;;;;1.47;1.30;;;;;;;11.29;74.09;101510.38;5088033;28;20706;-69
2022/09/01 03:47:41;;;;;;;1.97;1.20;;;;;;;11.28;73.80;101514.00;5088027;28;20233;-69
2022/09/01 03:50:16;;;;;;;2.13;1.00;;;;;;;11.23;73.61;101508.03;5089098;28;20198;-70
2022/09/01 03:52:44;;;;;;;1.63;1.10;;;;;;;11.17;73.42;101506.53;5087715;28;20206;-69
2022/09/01 03:55:11;;;;;;;2.47;1.60;;;;;;;11.11;73.19;101510.38;5090279;28;20234;-69
2022/09/01 03:57:41;;;;;;;2.17;1.37;;;;;;;11.08;73.39;101507.03;5085532;28;20922;-69
2022/09/01 04:00:11;;;;;;;5.10;1.50;;;;;;;11.05;73.89;101508.06;5087819;28;20225;-69
2022/09/01 04:02:38;;;;;;;3.00;1.23;;;;;;;11.02;73.84;101508.22;5085092;28;20226;-69
2022/09/01 04:05:05;;;;;;;2.90;1.63;;;;;;;10.98;73.72;101506.63;5087024;28;20222;-69
2022/09/01 04:07:32;;;;;;;1.70;1.43;;;;;;;10.96;73.85;101515.66;5085302;28;20860;-69
2022/09/01 04:10:00;;;;;;;1.33;1.23;;;;;;;10.92;74.19;101514.09;5089745;28;20200;-68
2022/09/01 04:12:26;;;;;;;1.90;1.40;;;;;;;10.90;74.40;101510.66;5086887;28;20212;-69
2022/09/01 04:14:53;;;;;;;3.10;1.50;;;;;;;10.88;74.56;101515.19;5087743;28;20228;-69
2022/09/01 04:20:08;;;;;;;2.43;1.20;;;;;;;10.87;75.25;101517.00;5088786;28;20204;-69
2022/09/01 04:22:36;;;;;;;1.87;1.57;;;;;;;10.87;75.14;101519.66;5086575;28;20294;-69
2022/09/01 04:25:05;;;;;;;2.47;1.47;;;;;;;10.85;75.09;101516.22;5087684;28;20227;-69
2022/09/01 04:27:32;;;;;;;1.43;1.33;;;;;;;10.83;75.41;101518.09;5082173;28;20350;-69
2022/09/01 04:30:00;;;;;;;1.70;1.50;;;;;;;10.83;76.01;101522.56;5085987;28;20299;-69
2022/09/01 04:32:26;;;;;;;4.93;1.70;;;;;;;10.83;76.38;101518.09;5083887;28;20197;-69
2022/09/01 04:34:54;;;;;;;3.27;1.43;;;;;;;10.83;76.26;101518.09;5087097;28;20723;-70
2022/09/01 04:37:22;;;;;;;3.37;1.50;;;;;;;10.84;76.81;101517.16;5083261;28;20224;-69
2022/09/01 04:39:51;;;;;;;2.40;1.40;;;;;;;10.85;76.85;101518.00;5084929;28;20386;-69
2022/09/01 04:42:22;;;;;;;2.43;1.63;;;;;;;10.85;76.58;101512.69;5085835;28;20277;-70
2022/09/01 04:44:48;;;;;;;1.80;1.43;;;;;;;10.82;76.57;101519.03;5086650;28;20232;-69
2022/09/01 04:47:15;;;;;;;3.03;1.60;;;;;;;10.79;76.64;101521.84;5087296;28;20205;-69
2022/09/01 04:49:44;;;;;;;3.23;1.40;;;;;;;10.75;76.46;101520.25;5086838;28;20278;-69
2022/09/01 04:52:11;;;;;;;3.63;1.53;;;;;;;10.71;76.35;101518.72;5084438;28;20214;-70
2022/09/01 04:54:38;;;;;;;1.80;1.33;;;;;;;10.66;76.31;101521.59;5082898;28;20230;-69
2022/09/01 04:57:06;;;;;;;4.07;1.90;;;;;;;10.65;76.77;101524.34;5084254;28;20234;-69
2022/09/01 04:59:34;;;;;;;3.73;2.40;;;;;;;10.64;77.34;101525.28;5085534;28;20202;-69
2022/09/01 05:02:01;;;;;;;2.23;1.80;;;;;;;10.61;76.63;101525.41;5084900;28;20216;-69
2022/09/01 05:04:32;;;;;;;2.67;1.73;;;;;;;10.56;76.85;101520.34;5082961;28;20198;-69
2022/09/01 05:07:00;;;;;;;1.83;1.40;;;;;;;10.53;76.63;101523.16;5086750;28;20674;-69
2022/09/01 05:09:28;;;;;;;3.37;1.60;;;;;;;10.50;76.47;101525.09;5082885;28;20215;-69
2022/09/01 05:11:56;;;;;;;2.50;1.30;;;;;;;10.49;76.66;101526.03;5082514;28;20250;-69
2022/09/01 05:14:24;;;;;;;2.47;1.60;;;;;;;10.47;76.53;101528.75;5085699;28;20257;-69
2022/09/01 05:16:57;;;;;;;2.23;1.70;;;;;;;10.44;76.87;101529.78;5082672;28;20251;-68
2022/09/01 05:19:25;;;;;;;5.97;2.43;;;;;;;10.44;77.45;101532.44;5081823;28;20208;-69
2022/09/01 05:21:53;;;;;;;4.60;2.20;;;;;;;10.48;78.04;101532.28;5083445;28;20311;-70
2022/09/01 05:24:21;;;;;;;2.40;2.20;;;;;;;10.53;79.10;101530.28;5082330;28;20263;-69
2022/09/01 05:26:49;;;;;;;3.00;1.97;;;;;;;10.60;79.53;101531.69;5081732;28;20716;-69
2022/09/01 05:29:16;;;;;;;3.00;2.40;;;;;;;10.68;80.26;101524.19;5080032;28;20229;-69
2022/09/01 05:31:45;;;;;;;2.17;2.07;;;;;;;10.78;80.29;101528.09;5082521;28;20205;-69
2022/09/01 05:34:18;;;;;;;2.43;2.20;;;;;;;10.87;81.18;101527.66;5085698;28;20605;-69
2022/09/01 05:36:50;;;;;;;3.27;2.30;;;;;;;10.97;81.94;101520.91;5086979;28;20754;-69
2022/09/01 05:39:17;;;;;;;4.97;2.40;;;;;;;11.10;82.23;101537.16;5084709;28;20211;-69
2022/09/01 05:41:44;;;;;;;4.70;2.53;;;;;;;11.22;82.97;101532.97;5086463;28;20230;-69
2022/09/01 05:44:12;;;;;;;4.20;2.73;;;;;;;11.33;83.30;101539.47;5086973;28;20750;-69
2022/09/01 05:46:42;;;;;;;3.27;2.40;;;;;;;11.46;83.66;101534.38;5087054;28;20205;-69
2022/09/01 05:49:15;;;;;;;2.97;2.50;;;;;;;11.57;83.74;101534.66;5087193;28;20230;-69
2022/09/01 05:51:48;;;;;;;4.70;2.93;;;;;;;11.70;83.92;101537.50;5084329;28;20268;-69
2022/09/01 05:54:16;;;;;;;2.70;2.50;;;;;;;11.80;83.65;101533.47;5084811;28;20214;-69
2022/09/01 05:56:44;;;;;;;2.87;2.47;;;;;;;11.91;83.99;101527.50;5087894;28;20202;-69
2022/09/01 05:59:11;;;;;;;4.07;2.57;;;;;;;12.02;84.11;101533.13;5086020;28;20200;-69
2022/09/01 06:01:39;;;;;;;3.77;2.57;;;;;;;12.12;83.95;101537.00;5083685;28;20207;-69
2022/09/01 06:04:08;;;;;;;2.87;2.33;;;;;;;12.21;83.71;101528.47;5085974;28;20204;-69
2022/09/01 06:06:39;;;;;;;3.73;2.47;;;;;;;12.32;83.96;101533.22;5082444;28;20308;-69
2022/09/01 06:09:09;;;;;;;4.47;2.67;;;;;;;12.45;83.54;101536.91;5086423;28;20253;-69
2022/09/01 06:11:36;;;;;;;4.13;2.53;;;;;;;12.57;84.07;101535.34;5082811;28;20611;-69
2022/09/01 06:14:04;;;;;;;2.80;2.27;;;;;;;12.68;83.55;101538.28;5085829;28;20607;-69
2022/09/01 06:16:32;;;;;;;3.27;2.13;;;;;;;12.80;83.17;101542.91;5086480;28;20238;-69
2022/09/01 06:18:58;;;;;;;2.70;2.43;;;;;;;12.90;82.54;101535.22;5085284;28;20208;-69
2022/09/01 06:21:27;;;;;;;4.40;2.23;;;;;;;13.00;82.41;101533.72;5086600;28;20213;-69
2022/09/01 06:23:55;;;;;;;4.27;2.20;;;;;;;13.11;82.20;101534.78;5084877;28;20676;-69
2022/09/01 06:26:27;;;;;;;2.77;1.90;;;;;;;13.25;82.12;101538.50;5085761;28;20744;-69
2022/09/01 06:28:55;;;;;;;3.83;2.07;;;;;;;13.37;82.08;101543.09;5086701;28;20327;-70
2022/09/01 06:31:23;;;;;;;2.77;2.10;;;;;;;13.49;81.65;101547.69;5087525;28;20207;-69
2022/09/01 06:33:52;;;;;;;3.47;2.10;;;;;;;13.62;81.25;101548.66;5086557;28;20194;-70
2022/09/01 06:36:20;;;;;;;3.63;1.93;;;;;;;13.77;81.11;101553.06;5085950;28;20315;-69
2022/09/01 06:38:46;;;;;;;3.00;2.00;;;;;;;13.92;80.72;101542.34;5086430;28;20210;-70
2022/09/01 06:41:13;;;;;;;4.43;2.20;;;;;;;14.03;80.06;101545.19;5087112;28;20592;-69
2022/09/01 06:43:42;;;;;;;2.50;2.07;;;;;;;14.11;78.90;101540.22;5089263;28;20224;-70
2022/09/01 06:46:09;;;;;;;2.90;2.33;;;;;;;14.21;78.68;101539.53;5082341;28;20232;-69
2022/09/01 06:48:37;;;;;;;3.77;1.80;;;;;;;14.33;78.99;101545.91;5087493;28;20293;-70
2022/09/01 06:51:04;;;;;;;3.07;1.70;;;;;;;14.44;77.96;101543.44;5081144;28;20201;-70
2022/09/01 06:53:32;;;;;;;4.57;1.80;;;;;;;14.55;77.78;101551.63;5085253;28;20201;-70
2022/09/01 06:55:59;;;;;;;8.77;1.80;;;;;;;14.66;76.97;101544.72;5086400;28;20228;-69
2022/09/01 06:58:26;;;;;;;3.77;2.00;;;;;;;14.76;76.63;101553.84;5087018;28;20193;-70
2022/09/01 07:00:54;;;;;;;2.67;1.70;;;;;;;14.86;75.56;101557.66;5078479;28;20208;-70
2022/09/01 07:03:22;;;;;;;2.00;1.80;;;;;;;14.92;75.25;101559.91;5083681;28;20223;-70
2022/09/01 07:05:51;;;;;;;2.70;1.87;;;;;;;15.00;75.04;101556.72;5085891;28;20310;-70
2022/09/01 07:08:20;;;;;;;3.47;1.80;;;;;;;15.09;74.19;101556.09;5081456;28;20205;-70
2022/09/01 07:10:49;;;;;;;4.67;2.00;;;;;;;15.20;74.40;101559.78;5082326;28;20695;-70
2022/09/01 07:13:22;;;;;;;4.30;2.27;;;;;;;15.28;73.51;101554.72;5082617;28;20667;-70
2022/09/01 07:15:51;;;;;;;5.20;2.20;;;;;;;15.38;73.68;101564.84;5087446;28;20669;-70
2022/09/01 07:18:23;;;;;;;3.37;2.43;;;;;;;15.50;73.48;101561.31;5082016;28;20213;-70
2022/09/01 07:20:51;;;;;;;2.37;1.93;;;;;;;15.62;73.65;101565.84;5090297;28;20209;-70
2022/09/01 07:23:19;;;;;;;2.67;1.60;;;;;;;15.78;72.87;101554.88;5089992;28;20242;-70
2022/09/01 07:25:50;;;;;;;2.53;1.60;;;;;;;15.90;71.92;101565.66;5089897;28;20230;-70
2022/09/01 07:28:17;;;;;;;2.63;1.40;;;;;;;16.01;72.21;101558.63;5090030;28;20278;-70
2022/09/01 07:30:47;;;;;;;1.57;1.47;;;;;;;16.11;71.68;101557.88;5088199;28;20213;-70
2022/09/01 07:33:14;;;;;;;3.93;1.47;;;;;;;16.17;71.04;101561.94;5086745;28;20704;-70
2022/09/01 07:35:42;;;;;;;5.03;1.43;;;;;;;16.27;71.14;101555.78;5088212;28;20227;-70
2022/09/01 07:38:10;;;;;;;2.87;1.27;;;;;;;16.43;70.95;101560.91;5088607;28;20669;-70
2022/09/01 07:40:38;;;;;;;1.40;1.30;;;;;;;16.55;70.40;101557.31;5086824;28;20208;-70
2022/09/01 07:43:08;;;;;;;2.27;1.00;;;;;;;16.69;69.66;101555.44;5082347;28;20228;-70
2022/09/01 07:45:37;;;;;;;4.13;1.03;;;;;;;16.87;69.40;101559.44;5086944;28;20229;-70
2022/09/01 07:48:06;;;;;;;1.30;1.10;;;;;;;17.04;68.52;101560.84;5087522;28;20364;-70
2022/09/01 07:50:33;;;;;;;1.40;1.03;;;;;;;17.18;66.93;101566.94;5083865;28;20688;-70
2022/09/01 07:53:01;;;;;;;1.30;1.20;;;;;;;17.29;65.96;101572.34;5088712;28;20254;-70
2022/09/01 07:55:28;;;;;;;2.73;1.23;;;;;;;17.38;65.14;101567.22;5084435;28;20295;-71
2022/09/01 07:57:54;;;;;;;3.13;1.37;;;;;;;17.47;64.57;101566.50;5085186;28;20292;-70
2022/09/01 08:00:21;;;;;;;4.30;1.33;;;;;;;17.56;64.52;101569.31;5089920;28;20690;-71
2022/09/01 08:02:50;;;;;;;1.40;1.17;;;;;;;17.68;63.95;101562.19;5081067;28;20294;-68
2022/09/01 08:05:21;;;;;;;2.10;1.17;;;;;;;17.79;63.17;101567.56;5088557;28;20286;-70
2022/09/01 08:07:48;;;;;;;1.40;1.13;;;;;;;17.89;62.59;101562.31;5080611;28;20210;-71
2022/09/01 08:10:16;;;;;;;4.00;1.13;;;;;;;18.03;61.80;101570.16;5083393;28;20235;-70
2022/09/01 08:12:43;;;;;;;2.30;0.80;;;;;;;18.16;61.07;101564.63;5088832;28;20208;-70
2022/09/01 08:15:11;;;;;;;1.27;0.70;;;;;;;18.27;60.40;101564.63;5089869;28;20806;-71
2022/09/01 08:17:39;;;;;;;0.70;0.70;;;;;;;18.41;60.19;101558.97;5082705;28;20296;-71
2022/09/01 08:20:07;;;;;;;1.90;0.90;;;;;;;18.55;59.37;101560.53;5088718;28;20215;-70
2022/09/01 08:22:36;;;;;;;3.47;1.03;;;;;;;18.69;58.81;101554.88;5084983;28;20651;-70
2022/09/01 08:25:03;;;;;;;1.30;1.10;;;;;;;18.85;57.87;101562.53;5082597;28;20226;-70
2022/09/01 08:27:31;;;;;;;3.03;1.00;;;;;;;18.97;57.05;101564.22;5082035;28;20214;-71
2022/09/01 08:29:59;;;;;;;1.53;0.60;;;;;;;18.96;56.10;101560.66;5088740;28;20205;-70
2022/09/01 08:32:26;;;;;;;3.77;1.00;;;;;;;18.89;55.54;101564.00;5085981;28;20665;-71
2022/09/01 08:34:53;;;;;;;3.80;1.00;;;;;;;18.84;55.97;101558.97;5089110;28;20231;-70
2022/09/01 08:37:20;;;;;;;2.23;0.90;;;;;;;18.80;55.83;101568.34;5085789;28;20197;-70
2022/09/01 08:39:48;;;;;;;2.93;0.80;;;;;;;18.75;55.33;101569.69;5084131;28;20217;-71
2022/09/01 08:42:24;;;;;;;1.80;0.80;;;;;;;18.73;54.99;101565.28;5085881;28;20213;-70
2022/09/01 08:45:02;;;;;;;2.53;0.87;;;;;;;18.70;54.47;101564.69;5083232;28;20226;-70
2022/09/01 08:47:30;;;;;;;2.47;0.73;;;;;;;18.67;53.83;101564.94;5087725;28;21376;-70
2022/09/01 08:49:58;;;;;;;1.00;0.70;;;;;;;18.65;53.31;101567.75;5086888;28;20212;-70
2022/09/01 08:52:30;;;;;;;1.53;0.67;;;;;;;18.63;52.98;101567.00;5080366;28;20239;-70
2022/09/01 08:55:04;;;;;;;1.50;0.80;;;;;;;18.67;53.21;101570.31;5075668;28;20236;-71
2022/09/01 08:57:33;;;;;;;1.93;0.87;;;;;;;18.81;53.38;101561.09;5083722;28;20280;-70
2022/09/01 09:00:01;;;;;;;1.00;0.80;;;;;;;18.98;53.34;101563.25;5084152;28;20215;-71
2022/09/01 09:02:39;;;;;;;2.53;0.80;;;;;;;19.12;53.25;101565.63;5081336;28;20748;-70
2022/09/01 09:05:08;;;;;;;1.70;0.70;;;;;;;19.27;52.92;101564.31;5085338;28;20231;-70
2022/09/01 09:07:52;;;;;;;2.07;0.80;;;;;;;19.42;52.49;101567.53;5080079;28;20673;-71
2022/09/01 09:10:23;;;;;;;2.70;0.80;;;;;;;19.55;52.15;101567.38;5079420;28;20214;-71
2022/09/01 09:13:08;;;;;;;2.70;0.90;;;;;;;19.65;51.71;101569.16;5084976;28;20197;-70
2022/09/01 09:15:43;;;;;;;2.30;0.77;;;;;;;19.76;51.52;101563.66;5087502;28;20720;-71
2022/09/01 09:18:19;;;;;;;1.57;1.00;;;;;;;19.89;51.67;101563.44;5080337;28;20216;-71
2022/09/01 09:20:46;;;;;;;2.63;1.00;;;;;;;20.00;51.40;101551.69;5086809;28;20212;-71
2022/09/01 09:23:23;;;;;;;3.20;0.80;;;;;;;20.08;50.61;101544.59;5081219;28;20318;-71
2022/09/01 09:25:50;;;;;;;1.33;0.60;;;;;;;20.10;50.33;101557.97;5084641;28;20252;-71
2022/09/01 09:28:17;;;;;;;2.00;0.90;;;;;;;20.18;50.59;101549.19;5088017;28;20211;-71
2022/09/01 09:30:45;;;;;;;1.87;0.93;;;;;;;20.28;50.35;101550.06;5079397;28;20208;-71
2022/09/01 09:33:36;;;;;;;2.27;1.00;;;;;;;20.41;50.22;101545.31;5081581;28;20257;-71
2022/09/01 09:36:17;;;;;;;2.27;0.80;;;;;;;20.54;50.14;101537.78;5080217;28;20230;-71
2022/09/01 09:38:45;;;;;;;4.97;1.23;;;;;;;20.69;49.73;101535.50;5079679;28;20260;-71
2022/09/01 09:41:17;;;;;;;5.00;1.10;;;;;;;20.82;49.15;101540.63;5086523;28;20206;-71
2022/09/01 09:43:47;;;;;;;4.95;1.50;;;;;;;20.90;48.54;101541.66;5087065;28;20234;-71
2022/09/01 09:46:23;;;;;;;1.33;0.70;;;;;;;20.98;48.48;101538.22;5085435;28;20219;-71
2022/09/01 09:49:07;;;;;;;1.13;0.60;;;;;;;21.07;47.40;101532.81;5084786;28;20207;-71
2022/09/01 09:51:35;;;;;;;1.88;0.80;;;;;;;21.13;47.08;101539.53;5085978;28;20210;-71
2022/09/01 09:54:12;;;;;;;1.85;0.60;;;;;;;21.25;46.96;101535.69;5081113;28;20215;-71
2022/09/01 09:56:40;;;;;;;1.15;0.60;;;;;;;21.34;45.79;101532.09;5082271;28;20207;-71
2022/09/01 09:59:17;;;;;;;3.20;0.70;;;;;;;21.45;44.74;101523.81;5083465;28;20551;-71
2022/09/01 10:01:50;;;;;;;1.88;0.60;;;;;;;21.52;43.64;101531.34;5082603;28;20211;-71
2022/09/01 10:04:32;;;;;;;0.88;0.30;;;;;;;21.60;43.67;101513.34;5082281;28;20220;-71
2022/09/01 10:06:58;;;;;;;0.65;0.40;;;;;;;21.63;43.00;101509.50;5083180;28;20676;-71
2022/09/01 10:09:35;;;;;;;0.50;0.30;;;;;;;21.67;42.52;101506.34;5083859;28;20203;-71
2022/09/01 10:12:02;;;;;;;1.23;0.40;;;;;;;21.71;42.25;101509.59;5085266;28;20219;-72
2022/09/01 10:14:33;;;;;;;0.70;0.57;;;;;;;21.79;42.85;101507.84;5086373;28;20671;-71
2022/09/01 10:17:05;;;;;;;2.33;0.70;;;;;;;21.94;42.42;101510.94;5076601;28;20212;-71
2022/09/01 10:19:34;;;;;;;1.67;0.40;;;;;;;22.04;41.59;101503.63;5086863;28;20223;-71
2022/09/01 10:22:02;;;;;;;0.70;0.38;;;;;;;22.06;41.30;101498.03;5082342;28;20207;-71
2022/09/01 10:24:32;;;;;;;0.40;0.30;;;;;;;22.14;41.41;101499.00;5085288;28;20220;-71
2022/09/01 10:27:01;;;;;;;2.88;0.85;;;;;;;22.21;40.78;101490.28;5082727;28;20196;-71
2022/09/01 10:29:32;;;;;;;1.23;0.57;;;;;;;22.32;39.94;101498.19;5084077;28;20204;-71
2022/09/01 10:32:00;;;;;;;0.40;0.40;;;;;;;22.42;39.82;101493.53;5085296;28;20195;-71
2022/09/01 10:34:33;;;;;;;2.05;0.57;;;;;;;22.51;38.89;101484.47;5085210;28;20314;-71
2022/09/01 10:37:00;;;;;;;0.88;0.40;;;;;;;22.57;38.63;101483.03;5085169;28;20200;-71
2022/09/01 10:39:26;;;;;;;1.55;0.40;;;;;;;22.63;38.49;101485.94;5083965;28;20868;-71
2022/09/01 10:41:56;;;;;;;1.10;0.45;;;;;;;22.71;38.13;101480.63;5079102;28;20215;-71
2022/09/01 10:44:29;;;;;;;1.45;0.30;;;;;;;22.74;37.68;101482.16;5085164;28;20786;-71
2022/09/01 10:46:57;;;;;;;1.52;0.43;;;;;;;22.78;37.19;101472.72;5090500;28;20278;-71
2022/09/01 10:49:59;;;;;;;0.40;0.40;;;;;;;22.81;36.97;101477.84;5088096;28;20208;-71
2022/09/01 10:52:59;;;;;;;1.15;0.35;;;;;;;22.80;36.77;101462.53;5088389;28;20207;-71
2022/09/01 10:55:30;;;;;;;1.05;0.47;;;;;;;22.70;36.15;101467.19;5087659;28;20223;-71
2022/09/01 10:58:07;;;;;;;0.35;0.30;;;;;;;22.66;35.92;101474.78;5090137;28;20250;-71
2022/09/01 11:00:48;;;;;;;0.20;0.20;;;;;;;22.69;34.91;101466.34;5089697;28;20421;-71
2022/09/01 11:03:53;;;;;;;1.65;0.45;;;;;;;22.68;34.97;101470.06;5087351;28;20695;-71
2022/09/01 11:06:53;;;;;;;0.93;0.20;;;;;;;22.64;34.81;101463.22;5056431;28;20255;-71
2022/09/01 11:09:25;;;;;;;0.35;0.28;;;;;;;22.65;35.00;101462.22;5089566;28;20208;-71
2022/09/01 11:12:11;;;;;;;0.38;0.30;;;;;;;22.72;35.13;101466.03;5088941;28;20587;-71
2022/09/01 11:14:48;;;;;;;1.95;0.57;;;;;;;22.76;35.04;101467.41;5089907;28;20223;-71
2022/09/01 11:17:19;;;;;;;0.88;0.30;;;;;;;22.73;34.69;101469.59;5089129;28;20685;-71
2022/09/01 11:19:54;;;;;;;0.30;0.22;;;;;;;22.72;34.30;101468.75;5080893;28;20211;-71
2022/09/01 11:22:26;;;;;;;0.60;0.32;;;;;;;22.77;34.56;101463.72;5087160;28;20252;-71
2022/09/01 11:25:11;;;;;;;0.30;0.30;;;;;;;22.84;34.27;101467.50;5088475;28;20280;-71
2022/09/01 11:28:35;;;;;;;0.30;0.30;;;;;;;22.94;34.11;101461.13;5083421;28;20200;-71
2022/09/01 11:31:10;;;;;;;0.65;0.22;;;;;;;23.01;33.88;101451.34;5084321;28;20204;-68
2022/09/01 11:33:50;;;;;;;1.65;0.32;;;;;;;23.07;33.85;101457.00;5084258;28;20200;-71
2022/09/01 11:36:28;;;;;;;0.68;0.22;;;;;;;23.14;34.18;101443.63;5084758;28;20254;-71
2022/09/01 11:38:59;;;;;;;0.63;0.45;;;;;;;23.21;34.19;101447.41;5086697;28;20234;-71
2022/09/01 11:41:35;;;;;;;1.50;0.30;;;;;;;23.31;34.32;101445.44;5088614;28;20414;-71
2022/09/01 11:44:11;;;;;;;0.95;0.30;;;;;;;23.40;33.56;101443.63;5084807;28;20223;-71